Time;durP1;ratioP1;P1;durP2;ratioP2;P2;SDS_P1;SDS_P2;PMS_P1;PMS_P2;Temp;Humidity;BMP_temperature;BMP_pressure;BME280_temperature;BME280_humidity;BME280_pressure;Samples;Min_cycle;Max_cycle;Signal;HPM_P1;HPM_P2
2021/07/04 00:00:56;;;;;;;7.85;6.78;;;;;;;19.92;55.35;99620.91;5111316;28;20051;-23
2021/07/04 00:03:22;;;;;;;9.35;6.50;;;;;;;19.55;55.68;99589.97;5111040;28;20044;-22
2021/07/04 00:05:48;;;;;;;7.43;6.30;;;;;;;19.80;55.55;99602.41;5111468;28;20028;-23
2021/07/04 00:08:16;;;;;;;8.20;6.50;;;;;;;19.81;55.36;99608.59;5110960;28;20404;-23
2021/07/04 00:10:45;;;;;;;7.35;6.30;;;;;;;19.92;55.21;99614.69;5111464;28;20084;-23
2021/07/04 00:13:11;;;;;;;7.45;6.35;;;;;;;20.11;54.57;99612.00;5110968;28;20032;-23
2021/07/04 00:15:41;;;;;;;8.98;6.00;;;;;;;20.00;54.94;99609.44;5110945;28;20023;-23
2021/07/04 00:18:14;;;;;;;8.25;5.97;;;;;;;19.72;55.32;99604.97;5111055;28;20063;-23
2021/07/04 00:20:40;;;;;;;7.53;6.28;;;;;;;19.95;54.81;99606.78;5111082;28;20023;-23
2021/07/04 00:23:06;;;;;;;7.60;6.05;;;;;;;19.83;54.88;99596.38;5110674;28;20380;-23
2021/07/04 00:25:31;;;;;;;8.27;6.82;;;;;;;19.94;55.20;99605.19;5092664;28;20036;-23
2021/07/04 00:27:57;;;;;;;7.65;6.65;;;;;;;20.27;54.51;99589.00;5110583;28;20031;-23
2021/07/04 00:30:23;;;;;;;9.10;6.32;;;;;;;20.00;55.65;99590.50;5110857;28;20034;-23
2021/07/04 00:32:48;;;;;;;8.00;6.40;;;;;;;19.81;56.11;99592.38;5111149;28;20036;-23
2021/07/04 00:35:15;;;;;;;8.18;6.63;;;;;;;19.89;56.20;99599.84;5092327;28;20502;-23
2021/07/04 00:37:40;;;;;;;7.85;6.70;;;;;;;20.10;56.20;99591.41;5110498;28;20023;-23
2021/07/04 00:40:07;;;;;;;7.85;6.68;;;;;;;19.61;57.02;99596.91;5110766;28;20522;-23
2021/07/04 00:42:32;;;;;;;7.28;6.47;;;;;;;19.36;57.81;99591.84;5109202;28;20028;-23
2021/07/04 00:44:58;;;;;;;7.53;6.40;;;;;;;19.37;57.80;99582.63;5110285;28;20038;-23
2021/07/04 00:47:23;;;;;;;8.90;6.85;;;;;;;19.21;58.32;99588.22;5110554;28;20036;-23
2021/07/04 00:49:49;;;;;;;9.23;7.13;;;;;;;19.58;58.07;99586.69;5109980;28;20031;-23
2021/07/04 00:52:15;;;;;;;8.48;7.00;;;;;;;19.90;56.74;99579.81;5092145;28;20043;-23
2021/07/04 00:54:40;;;;;;;8.88;6.75;;;;;;;19.77;56.47;99569.69;5110489;28;20115;-23
2021/07/04 00:57:06;;;;;;;8.75;6.72;;;;;;;19.52;57.21;99584.34;5110406;28;20040;-22
2021/07/04 00:59:31;;;;;;;8.98;6.93;;;;;;;19.20;58.08;99577.69;5074663;28;20035;-23
2021/07/04 01:01:58;;;;;;;8.68;6.55;;;;;;;19.06;58.51;99567.59;5091665;28;20511;-23
2021/07/04 01:04:26;;;;;;;8.02;6.80;;;;;;;19.23;58.13;99564.41;5109841;28;20101;-23
2021/07/04 01:06:51;;;;;;;7.87;5.90;;;;;;;19.16;57.54;99550.41;5110529;28;20035;-23
2021/07/04 01:09:16;;;;;;;7.63;6.75;;;;;;;19.53;57.25;99564.31;5091690;28;20410;-23
2021/07/04 01:11:42;;;;;;;8.02;6.68;;;;;;;19.56;56.94;99569.16;5091819;28;20089;-23
2021/07/04 01:14:07;;;;;;;7.30;5.95;;;;;;;19.34;56.96;99564.28;5109930;28;20902;-23
2021/07/04 01:16:33;;;;;;;9.52;6.68;;;;;;;19.28;57.45;99569.75;5074998;28;20042;-23
2021/07/04 01:18:58;;;;;;;8.70;7.00;;;;;;;19.55;57.03;99545.88;5109623;28;20456;-23
2021/07/04 01:21:24;;;;;;;8.00;6.85;;;;;;;19.21;57.61;99553.09;5109991;28;20034;-23
2021/07/04 01:23:49;;;;;;;8.15;6.10;;;;;;;19.23;57.51;99566.31;5109166;28;20027;-23
2021/07/04 01:26:15;;;;;;;9.35;6.40;;;;;;;18.93;58.21;99565.56;5109539;28;20038;-23
2021/07/04 01:28:40;;;;;;;8.73;6.55;;;;;;;18.96;58.02;99556.06;5109379;28;20035;-23
2021/07/04 01:31:06;;;;;;;10.52;7.30;;;;;;;19.06;58.23;99574.88;5109618;28;20036;-23
2021/07/04 01:33:31;;;;;;;7.45;6.22;;;;;;;19.07;58.09;99555.66;5109437;28;20106;-23
2021/07/04 01:35:57;;;;;;;10.07;7.10;;;;;;;19.09;58.43;99568.91;5109126;28;20106;-23
2021/07/04 01:38:22;;;;;;;9.52;7.40;;;;;;;19.14;58.26;99576.94;5109547;28;20035;-22
2021/07/04 01:40:48;;;;;;;7.50;6.32;;;;;;;18.92;58.13;99565.81;5109408;28;20035;-23
2021/07/04 01:43:14;;;;;;;8.10;7.07;;;;;;;19.06;58.24;99577.56;5090965;28;20032;-22
2021/07/04 01:45:39;;;;;;;9.85;6.82;;;;;;;19.32;58.21;99569.97;5109398;28;20028;-23
2021/07/04 01:48:05;;;;;;;9.50;8.20;;;;;;;19.92;56.84;99577.63;5109244;28;20031;-22
2021/07/04 01:50:33;;;;;;;8.23;7.15;;;;;;;19.99;56.75;99583.44;5109409;28;20031;-23
2021/07/04 01:52:59;;;;;;;9.65;7.65;;;;;;;19.94;56.73;99563.78;5109354;28;20873;-23
2021/07/04 01:55:24;;;;;;;9.90;7.85;;;;;;;19.57;57.48;99560.72;5109554;28;20024;-23
2021/07/04 01:57:50;;;;;;;9.23;8.00;;;;;;;19.50;57.94;99573.00;5108673;28;20039;-23
2021/07/04 02:00:20;;;;;;;9.48;7.30;;;;;;;19.70;57.48;99577.38;5109011;28;20042;-23
2021/07/04 02:02:47;;;;;;;8.75;7.10;;;;;;;19.49;57.82;99574.91;5108767;28;20051;-23
2021/07/04 02:05:13;;;;;;;9.25;7.28;;;;;;;19.59;59.04;99573.97;5074319;28;20811;-23
2021/07/04 02:07:38;;;;;;;9.40;7.53;;;;;;;19.83;56.99;99555.81;5090512;28;20164;-23
2021/07/04 02:10:07;;;;;;;10.07;7.35;;;;;;;19.55;57.74;99562.91;5108572;28;20020;-23
2021/07/04 02:12:33;;;;;;;8.35;7.45;;;;;;;19.37;58.11;99583.44;5090626;28;20035;-23
2021/07/04 02:14:58;;;;;;;10.02;7.35;;;;;;;19.40;59.10;99584.75;5108712;28;20027;-23
2021/07/04 02:17:24;;;;;;;9.43;7.93;;;;;;;19.40;58.50;99590.16;5108739;28;20089;-23
2021/07/04 02:19:50;;;;;;;9.32;7.97;;;;;;;19.57;58.11;99597.78;5108150;28;20019;-23
2021/07/04 02:22:15;;;;;;;10.27;7.80;;;;;;;19.45;58.97;99600.91;5108489;28;20027;-23
2021/07/04 02:24:41;;;;;;;9.57;7.32;;;;;;;19.44;58.95;99594.69;5108419;28;20059;-23
2021/07/04 02:27:06;;;;;;;8.90;7.45;;;;;;;19.51;58.62;99588.13;5108224;28;20030;-23
2021/07/04 02:29:32;;;;;;;9.80;7.65;;;;;;;19.47;58.95;99607.66;5108325;28;20038;-23
2021/07/04 02:31:58;;;;;;;10.23;7.45;;;;;;;19.76;58.07;99616.81;5089810;28;20063;-23
2021/07/04 02:34:23;;;;;;;8.70;7.47;;;;;;;19.72;58.23;99621.19;5112128;28;20031;-23
2021/07/04 02:36:48;;;;;;;8.90;7.35;;;;;;;19.86;57.93;99622.09;5110960;28;20407;-23
2021/07/04 02:39:14;;;;;;;8.55;7.05;;;;;;;19.55;57.79;99611.59;5108214;28;20031;-23
2021/07/04 02:41:41;;;;;;;8.35;7.25;;;;;;;19.71;58.23;99600.63;5108043;28;20039;-23
2021/07/04 02:44:07;;;;;;;10.43;7.57;;;;;;;19.72;57.30;99607.66;5107911;28;20086;-23
2021/07/04 02:46:32;;;;;;;8.65;7.40;;;;;;;19.63;57.91;99604.75;5108244;28;20063;-23
2021/07/04 02:48:58;;;;;;;7.53;6.38;;;;;;;19.07;58.23;99584.59;5108354;28;20031;-23
2021/07/04 02:51:23;;;;;;;8.75;6.90;;;;;;;19.37;58.13;99591.56;5108073;28;20807;-23
2021/07/04 02:53:49;;;;;;;12.35;7.80;;;;;;;19.34;58.77;99602.94;5107649;28;20402;-23
2021/07/04 02:56:14;;;;;;;9.55;7.15;;;;;;;19.35;58.59;99603.72;5107871;28;20043;-23
2021/07/04 02:58:40;;;;;;;9.60;7.25;;;;;;;19.11;59.72;99591.03;5107959;28;20505;-23
2021/07/04 03:01:05;;;;;;;8.00;7.20;;;;;;;19.31;59.14;99619.75;5107694;28;20070;-23
2021/07/04 03:03:31;;;;;;;9.65;7.53;;;;;;;19.11;59.37;99614.56;5107670;28;20063;-23
2021/07/04 03:05:56;;;;;;;8.00;7.20;;;;;;;19.00;59.49;99620.06;5088618;28;20020;-23
2021/07/04 03:08:21;;;;;;;8.63;7.47;;;;;;;19.26;59.43;99620.59;5089446;28;20043;-23
2021/07/04 03:10:48;;;;;;;9.73;7.70;;;;;;;19.16;59.63;99625.31;5107545;28;20059;-23
2021/07/04 03:13:13;;;;;;;8.93;7.72;;;;;;;18.93;59.34;99629.59;5107682;28;20035;-23
2021/07/04 03:15:39;;;;;;;13.25;7.57;;;;;;;19.27;59.93;99634.94;5107557;28;20487;-23
2021/07/04 03:18:04;;;;;;;10.30;8.00;;;;;;;19.42;58.73;99636.66;5089369;28;20035;-23
2021/07/04 03:20:30;;;;;;;7.80;6.85;;;;;;;19.25;59.28;99635.22;5107810;28;20024;-23
2021/07/04 03:22:55;;;;;;;9.27;7.40;;;;;;;19.35;58.91;99634.31;5107741;28;20534;-23
2021/07/04 03:25:21;;;;;;;9.30;6.68;;;;;;;19.57;57.88;99641.88;5107642;28;20027;-23
2021/07/04 03:27:46;;;;;;;9.07;7.38;;;;;;;19.71;57.55;99641.22;5107312;28;20479;-23
2021/07/04 03:30:20;;;;;;;8.07;7.07;;;;;;;19.72;57.17;99659.84;5107368;28;20031;-23
2021/07/04 03:32:47;;;;;;;8.50;6.45;;;;;;;19.73;57.96;99660.66;5107492;28;20035;-23
2021/07/04 03:35:13;;;;;;;8.27;6.70;;;;;;;20.11;56.23;99660.72;5107435;28;20019;-23
2021/07/04 03:37:38;;;;;;;8.90;6.57;;;;;;;20.03;57.26;99665.69;5107569;28;20051;-23
2021/07/04 03:40:05;;;;;;;8.10;6.32;;;;;;;19.87;57.09;99661.56;5089377;28;20024;-23
2021/07/04 03:42:30;;;;;;;10.43;6.40;;;;;;;19.82;57.59;99650.81;5107498;28;20035;-23
2021/07/04 03:44:56;;;;;;;6.78;5.50;;;;;;;19.79;57.13;99665.72;5089004;28;20034;-23
2021/07/04 03:47:25;;;;;;;8.57;6.53;;;;;;;19.96;57.09;99659.00;5107541;28;20031;-23
2021/07/04 03:49:51;;;;;;;10.45;6.82;;;;;;;20.01;57.65;99662.44;5107151;28;20027;-23
2021/07/04 03:52:16;;;;;;;8.50;6.13;;;;;;;19.94;56.60;99645.78;5107347;28;20396;-23
2021/07/04 03:54:42;;;;;;;7.65;6.07;;;;;;;19.93;57.28;99662.31;5107214;28;20131;-23
2021/07/04 03:57:22;;;;;;;9.85;6.68;;;;;;;19.85;56.63;99658.34;5107366;28;20031;-23
2021/07/04 03:59:55;;;;;;;8.05;5.55;;;;;;;19.62;57.61;99652.63;5107130;28;20032;-23
2021/07/04 04:02:21;;;;;;;8.43;6.03;;;;;;;19.78;57.04;99668.72;5107069;28;20043;-23
2021/07/04 04:04:46;;;;;;;7.90;6.13;;;;;;;19.93;57.02;99676.63;5107105;28;20051;-23
2021/07/04 04:07:12;;;;;;;8.07;6.15;;;;;;;19.78;56.94;99657.91;5107152;28;20028;-23
2021/07/04 04:09:37;;;;;;;7.40;5.80;;;;;;;19.71;57.61;99679.06;5107494;28;20031;-23
2021/07/04 04:12:03;;;;;;;7.18;6.05;;;;;;;20.02;57.45;99685.72;5106793;28;20032;-23
2021/07/04 04:14:29;;;;;;;7.43;6.13;;;;;;;20.02;56.77;99680.31;5107126;28;20104;-23
2021/07/04 04:16:54;;;;;;;9.27;6.40;;;;;;;20.03;57.30;99686.53;5109350;28;20031;-23
2021/07/04 04:19:20;;;;;;;8.82;6.13;;;;;;;20.22;56.85;99689.25;5110854;28;20035;-23
2021/07/04 04:21:45;;;;;;;7.00;5.93;;;;;;;20.12;57.34;99678.56;5111056;28;20383;-23
2021/07/04 04:24:11;;;;;;;6.22;5.53;;;;;;;20.07;57.32;99676.72;5110796;28;20783;-23
2021/07/04 04:26:36;;;;;;;7.22;6.10;;;;;;;20.11;57.71;99668.84;5110886;28;20027;-23
2021/07/04 04:29:02;;;;;;;7.68;5.78;;;;;;;20.26;56.83;99674.03;5110789;28;20032;-23
2021/07/04 04:31:27;;;;;;;8.15;5.95;;;;;;;20.32;57.35;99678.28;5092553;28;20555;-23
2021/07/04 04:33:53;;;;;;;8.02;5.95;;;;;;;20.50;56.97;99676.66;5110551;28;20468;-23
2021/07/04 04:36:19;;;;;;;6.85;5.78;;;;;;;20.54;56.37;99669.53;5110468;28;20049;-23
2021/07/04 04:38:44;;;;;;;6.63;5.47;;;;;;;20.85;55.75;99685.34;5110566;28;20027;-23
2021/07/04 04:41:10;;;;;;;7.78;5.60;;;;;;;20.89;55.65;99663.88;5110520;28;20092;-23
2021/07/04 04:43:35;;;;;;;10.30;6.20;;;;;;;20.83;55.17;99663.16;5110469;28;20151;-23
2021/07/04 04:46:01;;;;;;;6.65;5.95;;;;;;;21.11;55.46;99683.00;5110299;28;20089;-23
2021/07/04 04:48:26;;;;;;;6.97;6.00;;;;;;;21.23;54.88;99677.91;5110303;28;20058;-23
2021/07/04 04:50:52;;;;;;;11.48;6.20;;;;;;;21.26;55.28;99674.59;5110404;28;20403;-23
2021/07/04 04:53:17;;;;;;;8.98;6.05;;;;;;;21.00;55.30;99676.97;5111336;28;20023;-23
2021/07/04 04:55:43;;;;;;;7.35;5.65;;;;;;;20.95;56.17;99668.91;5113376;28;20039;-23
2021/07/04 04:58:08;;;;;;;7.13;5.85;;;;;;;20.93;55.97;99659.47;5110422;28;20165;-23
2021/07/04 05:00:33;;;;;;;7.38;5.63;;;;;;;20.81;56.44;99677.00;5110292;28;20032;-23
2021/07/04 05:03:05;;;;;;;7.53;5.07;;;;;;;20.75;56.25;99686.31;5109735;28;20088;-23
2021/07/04 05:05:31;;;;;;;9.40;6.28;;;;;;;20.62;57.31;99670.81;5110172;28;20028;-23
2021/07/04 05:07:56;;;;;;;8.02;5.72;;;;;;;20.87;56.16;99658.75;5110078;28;20058;-23
2021/07/04 05:10:22;;;;;;;7.43;5.55;;;;;;;21.07;54.99;99671.16;5110180;28;20028;-23
2021/07/04 05:12:47;;;;;;;7.75;5.25;;;;;;;21.28;54.45;99687.84;5092261;28;20074;-23
2021/07/04 05:15:13;;;;;;;7.93;4.72;;;;;;;21.26;54.31;99685.44;5110034;28;20043;-23
2021/07/04 05:17:38;;;;;;;6.50;5.43;;;;;;;21.39;54.50;99678.44;5109612;28;20032;-23
2021/07/04 05:20:05;;;;;;;6.70;5.00;;;;;;;21.71;53.39;99684.09;5109470;28;20020;-23
2021/07/04 05:22:30;;;;;;;7.18;5.43;;;;;;;21.89;53.47;99687.78;5109754;28;20027;-23
2021/07/04 05:24:56;;;;;;;7.70;5.32;;;;;;;21.84;53.17;99691.41;5109727;28;20028;-23
2021/07/04 05:27:21;;;;;;;6.75;4.95;;;;;;;21.90;52.71;99684.75;5109200;28;20043;-23
2021/07/04 05:29:47;;;;;;;5.55;4.38;;;;;;;21.74;52.71;99699.75;5109011;28;20027;-23
2021/07/04 05:32:12;;;;;;;6.50;4.85;;;;;;;21.85;53.62;99690.31;5109501;28;20456;-23
2021/07/04 05:34:38;;;;;;;6.05;4.90;;;;;;;22.07;52.83;99709.38;5109472;28;20035;-23
2021/07/04 05:37:03;;;;;;;6.38;4.78;;;;;;;22.08;52.72;99693.88;5109305;28;20483;-23
2021/07/04 05:39:29;;;;;;;6.05;4.90;;;;;;;22.50;51.93;99699.25;5109137;28;20026;-23
2021/07/04 05:41:55;;;;;;;6.00;5.00;;;;;;;22.35;51.50;99690.34;5109028;28;20431;-23
2021/07/04 05:44:20;;;;;;;9.65;4.90;;;;;;;22.35;52.00;99693.06;5109422;28;20034;-22
2021/07/04 05:46:47;;;;;;;7.40;5.03;;;;;;;22.23;51.28;99692.75;5109571;28;20039;-22
2021/07/04 05:49:13;;;;;;;5.88;4.50;;;;;;;22.41;51.35;99680.97;5109399;28;20758;-22
2021/07/04 05:51:39;;;;;;;5.65;4.18;;;;;;;22.60;51.32;99696.31;5090935;28;20495;-22
2021/07/04 05:54:04;;;;;;;6.40;4.80;;;;;;;22.96;50.85;99706.28;5108992;28;20059;-22
2021/07/04 05:56:30;;;;;;;5.90;4.80;;;;;;;23.04;49.72;99694.69;5090836;28;20035;-23
2021/07/04 05:58:55;;;;;;;6.38;4.60;;;;;;;22.94;49.64;99687.56;5109216;28;20483;-22
2021/07/04 06:01:21;;;;;;;6.70;4.45;;;;;;;23.30;49.57;99703.00;5108839;28;20392;-23
2021/07/04 06:03:46;;;;;;;5.32;4.15;;;;;;;23.13;50.08;99684.69;5108269;28;20061;-22
2021/07/04 06:06:12;;;;;;;5.72;4.35;;;;;;;23.48;49.04;99682.13;5108928;28;20114;-22
2021/07/04 06:08:37;;;;;;;5.30;3.80;;;;;;;23.65;48.21;99698.50;5108417;28;20035;-22
2021/07/04 06:11:04;;;;;;;5.93;4.63;;;;;;;23.45;49.05;99694.41;5108433;28;20035;-23
2021/07/04 06:13:29;;;;;;;8.15;4.22;;;;;;;23.48;48.90;99701.16;5108736;28;20083;-22
2021/07/04 06:15:55;;;;;;;6.10;4.20;;;;;;;23.60;49.49;99692.38;5108451;28;20031;-22
2021/07/04 06:18:20;;;;;;;10.10;6.43;;;;;;;23.73;48.75;99682.50;5108435;28;20035;-23
2021/07/04 06:20:46;;;;;;;6.00;4.50;;;;;;;23.88;50.36;99701.16;5090508;28;20107;-22
2021/07/04 06:23:11;;;;;;;6.97;4.32;;;;;;;23.88;48.42;99684.81;5108486;28;20058;-22
2021/07/04 06:25:37;;;;;;;5.57;4.45;;;;;;;24.04;47.90;99680.50;5108586;28;20550;-23
2021/07/04 06:28:02;;;;;;;5.85;3.90;;;;;;;24.05;47.62;99687.59;5108324;28;20063;-22
2021/07/04 06:30:28;;;;;;;6.43;4.93;;;;;;;24.13;48.23;99693.34;5090057;28;20016;-22
2021/07/04 06:32:53;;;;;;;5.22;3.80;;;;;;;24.20;47.41;99693.69;5108196;28;20487;-22
2021/07/04 06:35:19;;;;;;;7.15;4.43;;;;;;;24.14;48.01;99690.31;5108346;28;20034;-22
2021/07/04 06:37:44;;;;;;;7.57;4.43;;;;;;;24.40;48.72;99682.16;5089674;28;20038;-23
2021/07/04 06:40:11;;;;;;;7.75;4.35;;;;;;;24.41;48.17;99672.84;5107016;28;20122;-23
2021/07/04 06:42:36;;;;;;;5.20;4.03;;;;;;;24.40;48.40;99679.44;5107876;28;20035;-23
2021/07/04 06:45:04;;;;;;;5.70;4.00;;;;;;;24.46;48.75;99672.69;5108064;28;20087;-23
2021/07/04 06:47:30;;;;;;;8.95;4.28;;;;;;;24.67;47.58;99674.78;5107926;28;20074;-22
2021/07/04 06:49:55;;;;;;;5.80;3.95;;;;;;;24.31;47.82;99681.34;5107595;28;20028;-22
2021/07/04 06:52:21;;;;;;;7.65;4.68;;;;;;;24.49;47.39;99676.69;5108113;28;20057;-23
2021/07/04 06:54:46;;;;;;;5.57;4.07;;;;;;;24.45;47.92;99679.25;5107781;28;20406;-22
2021/07/04 06:57:27;;;;;;;5.65;4.43;;;;;;;24.34;48.50;99669.81;5107865;28;20027;-23
2021/07/04 07:00:10;;;;;;;5.18;4.30;;;;;;;24.59;49.26;99672.88;5091583;28;20519;-22
2021/07/04 07:02:36;;;;;;;8.45;4.50;;;;;;;24.57;48.35;99654.09;5090395;28;20512;-22
2021/07/04 07:05:02;;;;;;;8.27;4.80;;;;;;;24.53;48.28;99661.31;5107549;28;20435;-23
2021/07/04 07:07:28;;;;;;;10.70;5.13;;;;;;;24.53;46.36;99664.06;5107922;28;20486;-22
2021/07/04 07:09:53;;;;;;;4.70;3.90;;;;;;;24.49;46.78;99640.47;5108030;28;20032;-22
2021/07/04 07:12:19;;;;;;;5.18;3.67;;;;;;;24.75;45.40;99660.34;5107494;28;20097;-22
2021/07/04 07:14:44;;;;;;;6.25;3.90;;;;;;;24.77;45.85;99647.19;5107717;28;20028;-22
2021/07/04 07:17:10;;;;;;;8.23;4.60;;;;;;;24.66;45.44;99654.09;5107601;28;20028;-22
2021/07/04 07:19:36;;;;;;;5.07;3.70;;;;;;;24.77;46.45;99655.38;5107539;28;20095;-22
2021/07/04 07:22:01;;;;;;;7.18;4.38;;;;;;;24.90;45.63;99641.88;5107498;28;20026;-22
2021/07/04 07:24:27;;;;;;;5.90;4.20;;;;;;;24.69;45.98;99633.56;5107704;28;20409;-22
2021/07/04 07:26:53;;;;;;;5.93;4.40;;;;;;;25.08;45.30;99643.41;5107615;28;20091;-22
2021/07/04 07:29:18;;;;;;;7.10;4.30;;;;;;;25.34;45.65;99637.09;5089540;28;20031;-22
2021/07/04 07:31:44;;;;;;;8.27;4.47;;;;;;;25.30;44.84;99642.41;5107445;28;20460;-23
2021/07/04 07:34:10;;;;;;;5.47;4.32;;;;;;;25.48;44.93;99632.22;5088885;28;20508;-22
2021/07/04 07:36:35;;;;;;;5.30;4.22;;;;;;;25.30;44.26;99634.22;5089184;28;20061;-22
2021/07/04 07:39:01;;;;;;;6.10;4.60;;;;;;;25.49;43.87;99635.72;5107385;28;20116;-22
2021/07/04 07:41:26;;;;;;;6.80;4.20;;;;;;;25.80;45.03;99636.16;5107335;28;20556;-22
2021/07/04 07:43:52;;;;;;;7.05;4.50;;;;;;;25.67;44.93;99631.78;5107099;28;20035;-22
2021/07/04 07:46:17;;;;;;;7.55;4.53;;;;;;;26.00;44.74;99626.41;5107387;28;20031;-22
2021/07/04 07:48:43;;;;;;;5.88;4.03;;;;;;;26.00;43.47;99622.91;5089112;28;20032;-22
2021/07/04 07:51:08;;;;;;;6.97;4.50;;;;;;;26.13;42.99;99601.91;5108805;28;20046;-22
2021/07/04 07:53:34;;;;;;;5.88;4.45;;;;;;;26.18;42.30;99620.84;5111533;28;20028;-22
2021/07/04 07:55:59;;;;;;;5.70;4.28;;;;;;;26.15;42.84;99600.41;5111205;28;20027;-23
2021/07/04 07:58:25;;;;;;;5.53;3.92;;;;;;;26.34;41.74;99602.69;5093216;28;20416;-22
2021/07/04 08:00:50;;;;;;;5.68;3.72;;;;;;;26.49;39.99;99609.44;5111470;28;20636;-22
2021/07/04 08:03:16;;;;;;;5.57;3.95;;;;;;;26.78;42.24;99605.00;5093094;28;20108;-22
2021/07/04 08:05:41;;;;;;;5.97;4.32;;;;;;;27.19;40.86;99603.22;5111389;28;20027;-22
2021/07/04 08:08:07;;;;;;;6.88;4.30;;;;;;;27.09;39.98;99588.03;5110826;28;20037;-22
2021/07/04 08:10:33;;;;;;;5.47;4.10;;;;;;;26.82;39.80;99589.50;5110931;28;20028;-22
2021/07/04 08:12:59;;;;;;;5.32;3.80;;;;;;;26.85;40.07;99595.09;5111106;28;20024;-23
2021/07/04 08:15:24;;;;;;;6.18;3.85;;;;;;;26.72;40.37;99609.88;5111093;28;20042;-22
2021/07/04 08:17:50;;;;;;;5.50;3.42;;;;;;;26.84;39.03;99598.16;5110892;28;20023;-22
2021/07/04 08:20:16;;;;;;;6.13;4.03;;;;;;;26.91;39.68;99606.63;5111032;28;20024;-22
2021/07/04 08:22:41;;;;;;;5.75;4.20;;;;;;;26.99;39.93;99569.34;5110669;28;20023;-22
2021/07/04 08:25:07;;;;;;;6.28;4.00;;;;;;;27.07;40.42;99593.06;5092907;28;20072;-22
2021/07/04 08:27:33;;;;;;;7.20;4.22;;;;;;;27.04;39.68;99588.28;5110725;28;20485;-22
2021/07/04 08:29:58;;;;;;;6.35;4.45;;;;;;;27.20;38.78;99581.00;5110512;28;20027;-23
2021/07/04 08:32:24;;;;;;;5.70;4.18;;;;;;;27.30;38.82;99578.94;5075431;28;20078;-22
2021/07/04 08:34:49;;;;;;;6.45;3.65;;;;;;;27.61;38.78;99592.84;5092420;28;20027;-23
2021/07/04 08:37:15;;;;;;;6.07;4.15;;;;;;;27.27;39.41;99566.75;5110771;28;20031;-22
2021/07/04 08:39:40;;;;;;;6.35;4.10;;;;;;;27.36;39.09;99580.31;5110439;28;20145;-23
2021/07/04 08:42:06;;;;;;;5.85;3.83;;;;;;;27.83;38.74;99583.34;5079281;28;20800;-24
2021/07/04 08:44:31;;;;;;;5.40;3.70;;;;;;;27.66;37.94;99605.50;5070873;28;20024;-22
2021/07/04 08:46:57;;;;;;;5.95;3.92;;;;;;;27.71;39.04;99585.31;5088073;28;20044;-24
2021/07/04 08:49:23;;;;;;;6.15;3.97;;;;;;;27.88;38.28;99587.78;5088482;28;20107;-23
2021/07/04 08:51:48;;;;;;;5.20;3.90;;;;;;;28.09;37.68;99578.59;5089205;28;20028;-23
2021/07/04 08:54:14;;;;;;;5.47;3.80;;;;;;;27.79;37.17;99581.63;5089741;28;20028;-23
2021/07/04 08:56:39;;;;;;;6.25;3.78;;;;;;;27.60;38.63;99563.88;5089989;28;20392;-22
2021/07/04 08:59:05;;;;;;;6.35;4.00;;;;;;;27.91;38.27;99573.41;5055015;28;20146;-23
2021/07/04 09:01:30;;;;;;;5.03;3.53;;;;;;;27.93;36.29;99562.91;5089481;28;20043;-23
2021/07/04 09:04:18;;;;;;;8.25;4.13;;;;;;;28.14;37.52;99570.94;5088532;28;20416;-22
2021/07/04 09:06:55;;;;;;;5.95;3.92;;;;;;;28.30;37.63;99570.97;5072012;28;20030;-23
2021/07/04 09:09:30;;;;;;;8.65;4.57;;;;;;;28.28;37.42;99570.53;5089678;28;20034;-22
2021/07/04 09:12:05;;;;;;;5.32;4.35;;;;;;;28.33;37.08;99561.25;5089128;28;20028;-22
2021/07/04 09:14:41;;;;;;;7.68;4.85;;;;;;;28.33;37.65;99556.53;5089578;28;20032;-23
2021/07/04 09:17:10;;;;;;;5.93;4.15;;;;;;;28.23;38.81;99562.53;5072325;28;20032;-22
2021/07/04 09:19:35;;;;;;;4.85;3.38;;;;;;;28.25;34.85;99546.53;5089441;28;20038;-23
2021/07/04 09:22:04;;;;;;;6.07;3.88;;;;;;;28.57;35.99;99565.84;5089266;28;20032;-23
2021/07/04 09:24:34;;;;;;;5.93;4.00;;;;;;;28.64;36.91;99566.00;5089231;28;20056;-23
2021/07/04 09:27:00;;;;;;;5.90;4.03;;;;;;;28.91;37.03;99552.56;5089131;28;20053;-23
2021/07/04 09:29:48;;;;;;;7.30;4.53;;;;;;;28.86;34.91;99548.13;5089050;28;20492;-23
2021/07/04 09:32:15;;;;;;;7.43;3.83;;;;;;;28.66;36.07;99555.47;5071077;28;20024;-23
2021/07/04 09:34:42;;;;;;;6.70;4.25;;;;;;;28.77;35.21;99537.34;5089085;28;20024;-23
2021/07/04 09:37:07;;;;;;;6.10;4.30;;;;;;;28.88;34.79;99547.78;5088909;28;20032;-23
2021/07/04 09:39:33;;;;;;;7.20;6.07;;;;;;;29.17;34.48;99555.56;5089281;28;20392;-23
2021/07/04 09:42:02;;;;;;;11.35;7.07;;;;;;;29.12;35.51;99544.88;5089189;28;20085;-22
2021/07/04 09:44:28;;;;;;;5.95;3.85;;;;;;;29.30;34.99;99547.22;5088644;28;20032;-22
2021/07/04 09:47:13;;;;;;;5.57;4.32;;;;;;;29.05;35.65;99526.25;5089026;28;20058;-22
2021/07/04 09:49:39;;;;;;;5.30;3.97;;;;;;;29.07;35.51;99531.38;5088949;28;20138;-23
2021/07/04 09:52:30;;;;;;;5.43;3.90;;;;;;;29.38;34.61;99548.97;5070464;28;20142;-22
2021/07/04 09:55:00;;;;;;;7.68;4.90;;;;;;;29.55;34.43;99542.31;5083940;28;20389;-22
2021/07/04 09:57:26;;;;;;;6.40;4.57;;;;;;;29.47;33.36;99529.56;5089003;28;20039;-22
2021/07/04 10:00:12;;;;;;;6.25;4.20;;;;;;;29.64;33.03;99513.44;5088143;28;20028;-23
2021/07/04 10:02:37;;;;;;;5.63;4.15;;;;;;;29.75;33.49;99540.38;5088841;28;20127;-22
2021/07/04 10:05:15;;;;;;;6.15;4.68;;;;;;;29.88;32.90;99539.09;5070433;28;20048;-22
2021/07/04 10:07:41;;;;;;;7.57;3.83;;;;;;;29.63;33.01;99519.31;5070806;28;20027;-22
2021/07/04 10:10:08;;;;;;;10.80;4.35;;;;;;;29.74;33.09;99530.56;5053373;28;20415;-22
2021/07/04 10:12:34;;;;;;;5.28;3.78;;;;;;;29.92;31.27;99528.97;5088317;28;20024;-23
2021/07/04 10:14:59;;;;;;;5.15;4.00;;;;;;;29.63;32.91;99520.09;5088262;28;20496;-22
2021/07/04 10:17:28;;;;;;;6.18;4.07;;;;;;;29.98;33.14;99516.50;5088298;28;20039;-22
2021/07/04 10:19:54;;;;;;;6.95;4.35;;;;;;;30.29;31.37;99525.72;5088108;28;20571;-22
2021/07/04 10:22:20;;;;;;;4.75;3.50;;;;;;;30.59;32.16;99517.66;5088282;28;20028;-22
2021/07/04 10:24:45;;;;;;;6.13;3.90;;;;;;;30.41;30.92;99511.84;5053315;28;20028;-22
2021/07/04 10:27:11;;;;;;;8.73;3.95;;;;;;;30.69;30.72;99494.22;5070187;28;20032;-22
2021/07/04 10:29:36;;;;;;;8.35;4.40;;;;;;;31.06;31.85;99521.19;5088327;28;20024;-22
2021/07/04 10:32:09;;;;;;;8.75;4.10;;;;;;;30.99;31.76;99526.56;5070017;28;20036;-22
2021/07/04 10:34:48;;;;;;;7.35;3.95;;;;;;;30.32;31.13;99507.72;5087791;28;20032;-22
2021/07/04 10:37:15;;;;;;;6.13;4.13;;;;;;;29.93;33.89;99514.03;5103145;28;20043;-23
2021/07/04 10:39:40;;;;;;;6.50;4.38;;;;;;;29.49;33.08;99508.81;5107549;28;20031;-22
2021/07/04 10:42:07;;;;;;;8.50;4.13;;;;;;;30.07;32.17;99518.25;5107436;28;20886;-22
2021/07/04 10:44:42;;;;;;;7.65;3.78;;;;;;;30.69;31.83;99507.16;5089295;28;20418;-23
2021/07/04 10:47:12;;;;;;;5.57;3.80;;;;;;;30.12;30.84;99520.69;5084912;28;20063;-23
2021/07/04 10:49:50;;;;;;;5.32;4.03;;;;;;;30.02;31.88;99506.38;5095268;28;20076;-22
2021/07/04 10:52:18;;;;;;;5.65;4.10;;;;;;;30.66;29.18;99505.16;5087474;28;20102;-22
2021/07/04 10:54:45;;;;;;;6.15;4.07;;;;;;;30.93;28.86;99508.75;5087681;28;20032;-22
2021/07/04 10:57:11;;;;;;;5.95;3.92;;;;;;;31.16;31.09;99501.25;5087452;28;20807;-22
2021/07/04 11:00:01;;;;;;;6.40;3.97;;;;;;;31.43;28.87;99499.25;5087707;28;20151;-22
2021/07/04 11:02:48;;;;;;;11.75;4.95;;;;;;;31.15;30.61;99493.38;5087752;28;20038;-22
2021/07/04 11:05:41;;;;;;;5.05;4.15;;;;;;;30.65;30.52;99493.38;5087338;28;20028;-22
2021/07/04 11:08:08;;;;;;;6.53;4.25;;;;;;;31.18;30.49;99482.41;5087307;28;20043;-22
2021/07/04 11:10:38;;;;;;;7.07;4.17;;;;;;;31.91;28.77;99482.13;5087010;28;20078;-22
2021/07/04 11:13:06;;;;;;;7.88;5.35;;;;;;;31.42;29.30;99494.13;5086741;28;20314;-22
2021/07/04 11:15:32;;;;;;;12.57;7.40;;;;;;;31.55;27.49;99473.47;5086709;28;20027;-22
2021/07/04 11:17:58;;;;;;;5.70;4.00;;;;;;;31.58;26.70;99467.19;5087181;28;20411;-22
2021/07/04 11:20:30;;;;;;;11.63;5.85;;;;;;;31.38;28.08;99476.75;5087095;28;20067;-22
2021/07/04 11:22:56;;;;;;;6.93;4.55;;;;;;;31.00;27.54;99471.13;5087365;28;20063;-22
2021/07/04 11:25:22;;;;;;;11.25;5.57;;;;;;;31.10;28.61;99464.19;5086816;28;20169;-22
2021/07/04 11:28:15;;;;;;;5.28;3.03;;;;;;;31.40;28.22;99469.69;5069001;28;20036;-22
2021/07/04 11:31:02;;;;;;;6.60;5.00;;;;;;;30.98;26.26;99456.16;5087078;28;20090;-22